Time;durP1;ratioP1;P1;durP2;ratioP2;P2;SDS_P1;SDS_P2;PMS_P1;PMS_P2;Temp;Humidity;BMP_temperature;BMP_pressure;BME280_temperature;BME280_humidity;BME280_pressure;Samples;Min_cycle;Max_cycle;Signal;HPM_P1;HPM_P2
2022/04/21 00:00:06;;;;;;;0.40;0.40;;;6.80;54.90;;;;;;5054848;28;20192;-68
2022/04/21 00:02:33;;;;;;;0.40;0.40;;;6.80;55.10;;;;;;5054949;28;20170;-68
2022/04/21 00:04:59;;;;;;;0.35;0.35;;;6.60;55.40;;;;;;5055154;28;20189;-68
2022/04/21 00:07:25;;;;;;;0.30;0.30;;;6.60;55.20;;;;;;5054994;28;20514;-68
2022/04/21 00:09:51;;;;;;;0.40;0.40;;;6.70;55.10;;;;;;5052970;28;20208;-68
2022/04/21 00:12:17;;;;;;;0.30;0.30;;;6.50;54.70;;;;;;5053261;28;20174;-68
2022/04/21 00:14:43;;;;;;;0.40;0.40;;;6.50;54.50;;;;;;5053819;28;20186;-69
2022/04/21 00:17:08;;;;;;;0.63;0.63;;;6.50;55.30;;;;;;5054221;28;20400;-69
2022/04/21 00:19:37;;;;;;;0.40;0.40;;;6.60;54.70;;;;;;5054584;28;20182;-68
2022/04/21 00:24:48;;;;;;;0.30;0.30;;;6.60;55.20;;;;;;5054976;28;20185;-68
2022/04/21 00:27:14;;;;;;;0.30;0.30;;;6.50;55.50;;;;;;5054512;28;20542;-68
2022/04/21 00:29:40;;;;;;;0.40;0.40;;;6.40;55.80;;;;;;5054409;28;20864;-68
2022/04/21 00:32:06;;;;;;;0.70;0.70;;;6.30;55.90;;;;;;5054205;28;20179;-68
2022/04/21 00:34:32;;;;;;;0.40;0.40;;;6.40;55.90;;;;;;5054333;28;20202;-68
2022/04/21 00:36:58;;;;;;;2.25;1.48;;;6.30;56.00;;;;;;5054415;28;20167;-69
2022/04/21 00:39:23;;;;;;;0.30;0.30;;;6.30;56.00;;;;;;5052882;28;20251;-68
2022/04/21 00:42:01;;;;;;;0.50;0.50;;;6.20;55.80;;;;;;5054306;28;20190;-69
2022/04/21 00:44:28;;;;;;;0.50;0.50;;;6.20;56.80;;;;;;5054205;28;20177;-68
2022/04/21 00:46:57;;;;;;;0.35;0.35;;;6.20;56.60;;;;;;5054183;28;20585;-68
2022/04/21 00:49:25;;;;;;;0.30;0.30;;;6.20;56.40;;;;;;5054001;28;20232;-69
2022/04/21 00:51:52;;;;;;;0.40;0.40;;;6.20;56.70;;;;;;5054092;28;20174;-69
2022/04/21 00:54:18;;;;;;;0.40;0.40;;;6.10;56.40;;;;;;5054066;28;20190;-68
2022/04/21 00:56:45;;;;;;;0.30;0.30;;;6.00;56.50;;;;;;5054082;28;20205;-68
2022/04/21 00:59:11;;;;;;;0.38;0.38;;;6.00;57.30;;;;;;5052668;28;20204;-68
2022/04/21 01:04:24;;;;;;;0.30;0.30;;;5.90;57.20;;;;;;5054393;28;20176;-66
2022/04/21 01:06:51;;;;;;;0.40;0.40;;;5.90;56.70;;;;;;5051940;28;20189;-68
2022/04/21 01:09:17;;;;;;;0.40;0.40;;;5.90;56.80;;;;;;5053346;28;20217;-68
2022/04/21 01:11:43;;;;;;;0.37;0.37;;;5.90;57.20;;;;;;5053766;28;20178;-68
2022/04/21 01:14:09;;;;;;;0.40;0.40;;;5.90;57.20;;;;;;5053911;28;20206;-69
2022/04/21 01:16:35;;;;;;;0.40;0.40;;;5.80;56.80;;;;;;5052735;28;20166;-68
2022/04/21 01:19:01;;;;;;;0.40;0.40;;;5.80;57.50;;;;;;5052279;28;20671;-66
2022/04/21 01:21:26;;;;;;;0.40;0.40;;;5.80;57.70;;;;;;5052393;28;20178;-68
2022/04/21 01:23:52;;;;;;;0.40;0.40;;;5.80;57.50;;;;;;5053895;28;20495;-67
2022/04/21 01:26:18;;;;;;;0.40;0.40;;;5.70;57.30;;;;;;5053712;28;20166;-68
2022/04/21 01:28:45;;;;;;;0.30;0.30;;;5.70;57.00;;;;;;5053155;28;20190;-66
2022/04/21 01:31:11;;;;;;;0.40;0.40;;;5.90;57.20;;;;;;5053932;28;20503;-67
2022/04/21 01:33:37;;;;;;;0.40;0.40;;;5.80;57.40;;;;;;5053466;28;20194;-68
2022/04/21 01:36:04;;;;;;;0.30;0.30;;;5.70;57.30;;;;;;5054054;28;20245;-69
2022/04/21 01:41:14;;;;;;;0.38;0.38;;;5.60;56.90;;;;;;5053611;28;20563;-68
2022/04/21 01:43:43;;;;;;;0.40;0.40;;;5.60;57.70;;;;;;5053929;28;20174;-67
2022/04/21 01:46:11;;;;;;;0.30;0.30;;;5.60;58.10;;;;;;5053831;28;20209;-67
2022/04/21 01:48:37;;;;;;;0.40;0.40;;;5.50;58.80;;;;;;5053566;28;20190;-68
2022/04/21 01:51:03;;;;;;;0.40;0.40;;;5.50;58.70;;;;;;5053304;28;20603;-65
2022/04/21 01:53:29;;;;;;;0.40;0.40;;;5.30;59.30;;;;;;5053472;28;20682;-68
2022/04/21 01:55:54;;;;;;;0.30;0.30;;;5.20;59.80;;;;;;5053557;28;20193;-66
2022/04/21 01:58:21;;;;;;;0.40;0.40;;;5.10;59.40;;;;;;5053418;28;20412;-66
2022/04/21 02:00:46;;;;;;;0.32;0.32;;;5.20;59.50;;;;;;5053276;28;20400;-68
2022/04/21 02:03:12;;;;;;;0.30;0.30;;;5.20;59.80;;;;;;5053705;28;20197;-67
2022/04/21 02:05:38;;;;;;;0.40;0.40;;;5.20;59.80;;;;;;5053200;28;20173;-67
2022/04/21 02:08:04;;;;;;;0.40;0.40;;;5.20;59.50;;;;;;5053241;28;20620;-67
2022/04/21 02:10:30;;;;;;;0.40;0.40;;;5.20;60.30;;;;;;5053042;28;20162;-67
2022/04/21 02:12:56;;;;;;;0.30;0.30;;;5.20;61.10;;;;;;5053370;28;20401;-67
2022/04/21 02:15:23;;;;;;;0.30;0.30;;;5.00;61.60;;;;;;5053133;28;20198;-68
2022/04/21 02:17:49;;;;;;;0.40;0.40;;;5.00;62.40;;;;;;5051402;28;20166;-69
2022/04/21 02:20:16;;;;;;;0.30;0.30;;;4.90;63.50;;;;;;5052152;28;20503;-68
2022/04/21 02:22:45;;;;;;;0.30;0.30;;;5.00;63.50;;;;;;5052692;28;20178;-68
2022/04/21 02:25:13;;;;;;;0.30;0.30;;;5.00;64.50;;;;;;5050804;28;20170;-67
2022/04/21 02:27:41;;;;;;;0.30;0.30;;;5.00;64.00;;;;;;5052724;28;20181;-66
2022/04/21 02:30:09;;;;;;;0.30;0.30;;;4.90;63.80;;;;;;5053174;28;20190;-68
2022/04/21 02:32:35;;;;;;;0.40;0.40;;;4.90;64.90;;;;;;5050425;28;20185;-66
2022/04/21 02:35:02;;;;;;;0.40;0.40;;;4.80;64.60;;;;;;5052913;28;20201;-67
2022/04/21 02:37:34;;;;;;;0.50;0.50;;;4.90;64.30;;;;;;5053217;28;20159;-65
2022/04/21 02:39:59;;;;;;;0.30;0.30;;;4.80;64.50;;;;;;5053869;28;20220;-66
2022/04/21 02:42:25;;;;;;;0.30;0.30;;;4.80;65.70;;;;;;5057108;28;20197;-66
2022/04/21 02:44:50;;;;;;;0.93;0.93;;;4.90;65.50;;;;;;5056549;28;20228;-68
2022/04/21 02:47:17;;;;;;;0.40;0.40;;;4.90;66.40;;;;;;5056965;28;20548;-67
2022/04/21 02:49:47;;;;;;;1.30;1.30;;;4.90;66.10;;;;;;5056565;28;20198;-66
2022/04/21 02:52:13;;;;;;;0.40;0.40;;;4.90;66.30;;;;;;5057003;28;20519;-67
2022/04/21 02:57:24;;;;;;;0.40;0.40;;;4.80;67.00;;;;;;5056972;28;20315;-65
2022/04/21 02:59:57;;;;;;;0.30;0.30;;;4.60;67.70;;;;;;5056103;28;20194;-65
2022/04/21 03:02:24;;;;;;;0.30;0.30;;;4.60;69.30;;;;;;5056563;28;20171;-67
2022/04/21 03:04:52;;;;;;;0.40;0.40;;;4.70;68.30;;;;;;5056437;28;20694;-65
2022/04/21 03:07:20;;;;;;;0.30;0.30;;;4.80;69.20;;;;;;5056117;28;20180;-67
2022/04/21 03:09:47;;;;;;;0.40;0.40;;;4.70;69.20;;;;;;5055731;28;20222;-67
2022/04/21 03:12:13;;;;;;;0.30;0.30;;;4.80;69.30;;;;;;5056443;28;20266;-66
2022/04/21 03:14:40;;;;;;;0.40;0.40;;;4.70;68.70;;;;;;5055989;28;20575;-68
2022/04/21 03:17:09;;;;;;;0.30;0.30;;;4.70;68.10;;;;;;5056165;28;20256;-66
2022/04/21 03:19:37;;;;;;;0.30;0.30;;;4.80;69.30;;;;;;5053772;28;20731;-66
2022/04/21 03:24:48;;;;;;;0.30;0.30;;;4.80;69.80;;;;;;5055968;28;20657;-66
2022/04/21 03:27:13;;;;;;;0.40;0.40;;;4.80;70.20;;;;;;5053405;28;20189;-66
2022/04/21 03:29:40;;;;;;;0.30;0.30;;;4.70;71.00;;;;;;5054971;28;20650;-66
2022/04/21 03:32:09;;;;;;;0.30;0.30;;;4.70;71.40;;;;;;5053632;28;20238;-67
2022/04/21 03:34:41;;;;;;;0.30;0.30;;;4.70;71.30;;;;;;5052084;28;20186;-66
2022/04/21 03:37:13;;;;;;;0.30;0.30;;;4.70;71.90;;;;;;5054977;28;20170;-67
2022/04/21 03:39:39;;;;;;;0.30;0.30;;;4.50;71.60;;;;;;5054767;28;20223;-66
2022/04/21 03:42:06;;;;;;;0.30;0.30;;;4.50;72.50;;;;;;5054691;28;20189;-66
2022/04/21 03:44:32;;;;;;;0.40;0.40;;;4.60;73.20;;;;;;5054850;28;20178;-67
2022/04/21 03:46:58;;;;;;;0.30;0.30;;;4.60;73.80;;;;;;5055100;28;20167;-66
2022/04/21 03:49:28;;;;;;;0.30;0.30;;;4.40;72.60;;;;;;5054162;28;20197;-67
2022/04/21 03:51:54;;;;;;;0.30;0.30;;;4.40;73.40;;;;;;5054478;28;20786;-66
2022/04/21 03:54:20;;;;;;;0.40;0.40;;;4.30;74.00;;;;;;5055200;28;20202;-67
2022/04/21 03:56:46;;;;;;;0.30;0.30;;;4.40;74.60;;;;;;5055253;28;20639;-67
2022/04/21 03:59:12;;;;;;;0.40;0.40;;;4.40;74.20;;;;;;5055255;28;20251;-67
2022/04/21 04:01:37;;;;;;;0.40;0.40;;;4.20;74.40;;;;;;5054838;28;20400;-67
2022/04/21 04:04:03;;;;;;;0.30;0.30;;;4.30;75.50;;;;;;5055090;28;20176;-66
2022/04/21 04:11:56;;;;;;;0.30;0.30;;;4.10;76.50;;;;;;5054811;28;20282;-67
2022/04/21 04:14:22;;;;;;;0.40;0.40;;;4.20;78.00;;;;;;5054914;28;20228;-68
2022/04/21 04:16:48;;;;;;;1.43;1.43;;;4.20;77.30;;;;;;5055164;28;20253;-67
2022/04/21 04:19:14;;;;;;;0.30;0.30;;;4.10;77.50;;;;;;5054611;28;20182;-67
2022/04/21 04:21:39;;;;;;;0.30;0.30;;;4.20;78.20;;;;;;5054353;28;20421;-67
2022/04/21 04:24:06;;;;;;;0.37;0.37;;;4.20;78.80;;;;;;5054765;28;20178;-66
2022/04/21 04:26:32;;;;;;;0.40;0.40;;;4.20;78.50;;;;;;5054595;28;20245;-67
2022/04/21 04:28:58;;;;;;;0.32;0.32;;;4.10;78.30;;;;;;5054469;28;20216;-67
2022/04/21 04:31:24;;;;;;;0.30;0.30;;;4.00;77.60;;;;;;5054209;28;20200;-67
2022/04/21 04:33:50;;;;;;;0.33;0.33;;;4.10;78.40;;;;;;5054312;28;20243;-67
2022/04/21 04:36:16;;;;;;;0.30;0.30;;;4.20;79.50;;;;;;5054699;28;20202;-67
2022/04/21 04:38:43;;;;;;;0.52;0.52;;;4.10;78.70;;;;;;5054237;28;20193;-66
2022/04/21 04:43:53;;;;;;;0.30;0.30;;;4.20;79.90;;;;;;5054628;28;20185;-69
2022/04/21 04:49:09;;;;;;;0.30;0.30;;;4.10;79.80;;;;;;5054147;28;20200;-67
2022/04/21 04:51:37;;;;;;;0.30;0.30;;;4.20;79.10;;;;;;5054081;28;20170;-66
2022/04/21 04:54:06;;;;;;;0.32;0.32;;;4.20;78.30;;;;;;5054056;28;20186;-67
2022/04/21 04:56:32;;;;;;;0.30;0.30;;;4.20;78.30;;;;;;5053929;28;20178;-67
2022/04/21 04:58:58;;;;;;;0.32;0.32;;;4.30;78.20;;;;;;5052564;28;20192;-68
2022/04/21 05:01:29;;;;;;;0.30;0.30;;;4.30;78.20;;;;;;5053811;28;20170;-66
2022/04/21 05:04:04;;;;;;;0.30;0.30;;;4.40;79.20;;;;;;5053208;28;20224;-67
2022/04/21 05:06:34;;;;;;;3.03;2.92;;;4.30;80.40;;;;;;5053887;28;20174;-66
2022/04/21 05:09:00;;;;;;;0.30;0.30;;;4.40;79.30;;;;;;5053645;28;20277;-66
2022/04/21 05:11:25;;;;;;;0.30;0.30;;;4.60;78.60;;;;;;5053547;28;20286;-68
2022/04/21 05:13:51;;;;;;;0.40;0.40;;;4.60;78.10;;;;;;5053966;28;20331;-67
2022/04/21 05:16:17;;;;;;;0.30;0.30;;;4.60;75.60;;;;;;5053776;28;20162;-66
2022/04/21 05:18:43;;;;;;;0.30;0.30;;;4.70;76.90;;;;;;5053769;28;20671;-66
2022/04/21 05:21:09;;;;;;;1.20;1.20;;;4.70;75.90;;;;;;5053276;28;20178;-66
2022/04/21 05:23:37;;;;;;;0.30;0.30;;;4.80;76.50;;;;;;5053797;28;20579;-67
2022/04/21 05:26:03;;;;;;;0.30;0.30;;;4.70;76.50;;;;;;5053509;28;20174;-66
2022/04/21 05:28:30;;;;;;;0.40;0.40;;;5.20;75.30;;;;;;5053532;28;20195;-66
2022/04/21 05:30:58;;;;;;;0.40;0.40;;;6.50;73.60;;;;;;5053293;28;20407;-67
2022/04/21 05:33:26;;;;;;;0.55;0.55;;;8.20;67.10;;;;;;5053466;28;20174;-67
2022/04/21 05:35:52;;;;;;;0.30;0.30;;;10.00;59.60;;;;;;5053161;28;20166;-68
2022/04/21 05:38:20;;;;;;;0.43;0.43;;;11.60;56.30;;;;;;5053406;28;20283;-68
2022/04/21 05:40:46;;;;;;;0.40;0.40;;;13.20;50.90;;;;;;5053131;28;20431;-68
2022/04/21 05:43:14;;;;;;;0.40;0.40;;;14.50;46.50;;;;;;5053227;28;20397;-68
2022/04/21 05:45:40;;;;;;;0.30;0.30;;;15.50;44.10;;;;;;5053299;28;20413;-68
2022/04/21 05:48:06;;;;;;;0.30;0.30;;;16.30;41.10;;;;;;5053394;28;20928;-69
2022/04/21 05:50:32;;;;;;;0.30;0.30;;;17.10;38.60;;;;;;5052989;28;20413;-68
2022/04/21 05:53:03;;;;;;;0.30;0.30;;;18.10;38.70;;;;;;5053417;28;20408;-68
2022/04/21 05:55:29;;;;;;;0.30;0.30;;;19.10;37.10;;;;;;5051912;28;20808;-68
2022/04/21 05:57:55;;;;;;;0.40;0.40;;;19.80;34.70;;;;;;5053164;28;20476;-69
2022/04/21 06:00:21;;;;;;;1.40;1.27;;;19.80;32.70;;;;;;5052968;28;20783;-68
2022/04/21 06:02:47;;;;;;;0.30;0.30;;;19.50;32.80;;;;;;5053252;28;20400;-67
2022/04/21 06:05:12;;;;;;;0.30;0.30;;;19.10;33.10;;;;;;5053335;28;20411;-68
2022/04/21 06:07:39;;;;;;;0.30;0.30;;;19.10;33.60;;;;;;5053083;28;20177;-68
2022/04/21 06:10:05;;;;;;;0.30;0.30;;;19.60;32.80;;;;;;5053128;28;20200;-68
2022/04/21 06:12:33;;;;;;;0.40;0.40;;;19.90;31.40;;;;;;5053372;28;20924;-68
2022/04/21 06:14:58;;;;;;;0.30;0.30;;;21.20;32.20;;;;;;5054025;28;20529;-68
2022/04/21 06:17:25;;;;;;;0.30;0.30;;;22.10;30.80;;;;;;5057141;28;20829;-69
2022/04/21 06:19:50;;;;;;;0.30;0.30;;;22.10;28.90;;;;;;5056744;28;20197;-69
2022/04/21 06:22:16;;;;;;;0.30;0.30;;;22.00;28.70;;;;;;5056955;28;20435;-69
2022/04/21 06:24:42;;;;;;;0.57;0.47;;;21.20;28.90;;;;;;5056942;28;20199;-69
2022/04/21 06:27:08;;;;;;;0.30;0.30;;;20.40;28.60;;;;;;5056299;28;20255;-68
2022/04/21 06:29:34;;;;;;;0.30;0.30;;;20.60;27.00;;;;;;5054865;28;20187;-68
2022/04/21 06:31:59;;;;;;;1.00;1.00;;;20.80;27.40;;;;;;5056912;28;20410;-68
2022/04/21 06:34:25;;;;;;;0.80;0.80;;;20.50;27.40;;;;;;5055707;28;20212;-68
2022/04/21 06:36:51;;;;;;;0.30;0.30;;;20.70;27.80;;;;;;5055268;28;20168;-68
2022/04/21 06:39:16;;;;;;;0.30;0.30;;;21.00;28.00;;;;;;5056533;28;20228;-68
2022/04/21 06:41:42;;;;;;;0.30;0.30;;;20.60;27.30;;;;;;5056519;28;20496;-69
2022/04/21 06:49:35;;;;;;;0.70;0.70;;;16.40;28.10;;;;;;5056385;28;20974;-67
2022/04/21 06:52:02;;;;;;;0.30;0.30;;;16.10;29.20;;;;;;5056299;28;20408;-67
2022/04/21 06:54:28;;;;;;;3.80;2.40;;;16.10;28.60;;;;;;5056302;28;20193;-67
2022/04/21 06:56:53;;;;;;;0.37;0.37;;;15.90;30.50;;;;;;5056401;28;20885;-68
2022/04/21 06:59:19;;;;;;;0.50;0.50;;;14.90;28.70;;;;;;5056028;28;20200;-68
2022/04/21 07:01:47;;;;;;;0.30;0.30;;;15.00;30.20;;;;;;5055960;28;20166;-67
2022/04/21 07:04:14;;;;;;;0.40;0.40;;;15.50;29.30;;;;;;5056203;28;20166;-67
2022/04/21 07:06:40;;;;;;;0.30;0.30;;;16.20;29.40;;;;;;5056333;28;20470;-69
2022/04/21 07:09:05;;;;;;;0.30;0.30;;;16.70;28.50;;;;;;5055992;28;20431;-69
2022/04/21 07:11:32;;;;;;;0.30;0.30;;;17.30;29.20;;;;;;5055703;28;20169;-69
2022/04/21 07:13:57;;;;;;;0.60;0.60;;;18.50;28.20;;;;;;5055844;28;20193;-68
2022/04/21 07:16:23;;;;;;;0.40;0.40;;;20.00;27.90;;;;;;5055967;28;20392;-68
2022/04/21 07:18:49;;;;;;;0.47;0.47;;;21.30;27.00;;;;;;5055803;28;20655;-68
2022/04/21 07:21:15;;;;;;;0.30;0.30;;;21.70;26.30;;;;;;5055707;28;20178;-69
2022/04/21 07:23:42;;;;;;;0.30;0.30;;;22.50;25.90;;;;;;5055974;28;20166;-68
2022/04/21 07:26:08;;;;;;;0.30;0.30;;;23.40;24.00;;;;;;5054973;28;20908;-68
2022/04/21 07:28:34;;;;;;;0.30;0.30;;;22.40;23.10;;;;;;5054267;28;20443;-68
2022/04/21 07:31:00;;;;;;;0.50;0.50;;;23.30;23.30;;;;;;5053922;28;20178;-68
2022/04/21 07:33:26;;;;;;;0.30;0.30;;;23.50;23.40;;;;;;5053575;28;20739;-69
2022/04/21 07:35:52;;;;;;;2.30;0.57;;;23.60;24.30;;;;;;5054488;28;20408;-69
2022/04/21 07:38:17;;;;;;;0.60;0.60;;;24.00;22.90;;;;;;5053836;28;20190;-68
2022/04/21 07:40:43;;;;;;;0.73;0.73;;;24.40;24.20;;;;;;5054470;28;20344;-68
2022/04/21 07:43:09;;;;;;;0.30;0.30;;;25.60;24.50;;;;;;5055492;28;20300;-69
2022/04/21 07:45:39;;;;;;;0.30;0.30;;;26.20;22.60;;;;;;5055672;28;20495;-69
2022/04/21 07:48:05;;;;;;;0.40;0.40;;;26.60;21.80;;;;;;5052882;28;20401;-69
2022/04/21 07:50:31;;;;;;;0.83;0.70;;;27.30;22.60;;;;;;5055327;28;20417;-69
2022/04/21 07:53:14;;;;;;;2.50;1.40;;;26.40;20.80;;;;;;5054686;28;20754;-68
2022/04/21 07:55:48;;;;;;;0.30;0.30;;;27.30;21.70;;;;;;5053310;28;20659;-69
2022/04/21 07:58:14;;;;;;;0.60;0.40;;;28.30;20.40;;;;;;5055421;28;20448;-69
2022/04/21 08:00:40;;;;;;;0.40;0.40;;;27.20;20.60;;;;;;5054112;28;20404;-69
2022/04/21 08:03:09;;;;;;;0.30;0.30;;;24.10;21.00;;;;;;5052835;28;20424;-69
2022/04/21 08:05:35;;;;;;;0.50;0.50;;;22.60;23.00;;;;;;5054750;28;20452;-69
2022/04/21 08:08:03;;;;;;;0.40;0.40;;;22.90;23.70;;;;;;5054079;28;20489;-68
2022/04/21 08:10:29;;;;;;;0.70;0.70;;;22.20;23.40;;;;;;5054417;28;20413;-69
2022/04/21 08:12:59;;;;;;;0.70;0.70;;;23.20;23.20;;;;;;5055943;28;20409;-69
2022/04/21 08:15:31;;;;;;;0.30;0.30;;;23.90;22.70;;;;;;5054999;28;20433;-69
2022/04/21 08:17:59;;;;;;;0.57;0.57;;;24.50;23.50;;;;;;5054537;28;20427;-69
2022/04/21 08:20:27;;;;;;;0.60;0.60;;;24.40;23.60;;;;;;5054001;28;20436;-69
2022/04/21 08:22:53;;;;;;;0.30;0.30;;;25.20;22.50;;;;;;5054317;28;20438;-69
2022/04/21 08:33:32;;;;;;;0.73;0.73;;;27.30;19.90;;;;;;5054883;28;20433;-69
2022/04/21 08:35:58;;;;;;;0.70;0.70;;;27.30;20.60;;;;;;5051933;28;20405;-68
2022/04/21 08:38:25;;;;;;;0.40;0.40;;;25.80;22.00;;;;;;5053870;28;20189;-69
2022/04/21 08:40:58;;;;;;;0.93;0.93;;;26.40;23.20;;;;;;5053331;28;20166;-69
2022/04/21 08:43:29;;;;;;;0.30;0.30;;;27.40;21.80;;;;;;5051529;28;20401;-69
2022/04/21 08:45:55;;;;;;;0.53;0.53;;;27.30;19.50;;;;;;5054109;28;20401;-68
2022/04/21 08:48:23;;;;;;;0.50;0.50;;;27.00;19.90;;;;;;5053960;28;20747;-69
2022/04/21 08:50:49;;;;;;;2.27;2.17;;;26.80;20.70;;;;;;5053521;28;20770;-68
2022/04/21 08:53:20;;;;;;;1.20;0.80;;;26.30;19.90;;;;;;5054314;28;20943;-69
2022/04/21 08:55:47;;;;;;;0.30;0.30;;;25.70;20.30;;;;;;5054168;28;20782;-68
2022/04/21 08:58:13;;;;;;;1.43;0.53;;;25.00;20.70;;;;;;5053864;28;20436;-68
2022/04/21 09:00:40;;;;;;;0.30;0.30;;;25.30;20.60;;;;;;5053867;28;20397;-68
2022/04/21 09:03:09;;;;;;;0.30;0.30;;;26.00;20.90;;;;;;5054012;28;20166;-68
2022/04/21 09:05:35;;;;;;;0.30;0.30;;;26.40;20.20;;;;;;5054062;28;20413;-69
2022/04/21 09:08:01;;;;;;;0.47;0.47;;;27.00;20.80;;;;;;5053943;28;20454;-69
2022/04/21 09:10:32;;;;;;;0.30;0.30;;;27.70;20.80;;;;;;5053554;28;20496;-68
2022/04/21 09:13:00;;;;;;;0.37;0.37;;;28.00;20.30;;;;;;5053787;28;20812;-68
2022/04/21 09:15:30;;;;;;;1.27;1.07;;;26.50;20.70;;;;;;5053888;28;20547;-68
2022/04/21 09:17:57;;;;;;;0.30;0.30;;;26.20;21.20;;;;;;5053851;28;20818;-68
2022/04/21 09:20:26;;;;;;;0.40;0.40;;;26.20;20.50;;;;;;5053465;28;20407;-68
2022/04/21 09:23:00;;;;;;;0.30;0.30;;;26.20;20.70;;;;;;5053391;28;20425;-68
2022/04/21 09:25:28;;;;;;;0.30;0.30;;;25.40;21.00;;;;;;5053678;28;20412;-68
2022/04/21 09:27:55;;;;;;;0.40;0.40;;;25.90;21.40;;;;;;5053512;28;20479;-68
2022/04/21 09:30:21;;;;;;;0.30;0.30;;;26.10;21.60;;;;;;5053373;28;20417;-68
2022/04/21 09:32:52;;;;;;;0.30;0.30;;;26.70;20.70;;;;;;5053619;28;20420;-69
2022/04/21 09:35:19;;;;;;;0.50;0.50;;;27.30;20.80;;;;;;5053539;28;20436;-68
2022/04/21 09:37:48;;;;;;;0.40;0.40;;;27.20;20.30;;;;;;5053145;28;20454;-68
2022/04/21 09:40:15;;;;;;;0.60;0.60;;;27.40;20.90;;;;;;5051441;28;20502;-68
2022/04/21 09:42:41;;;;;;;0.40;0.40;;;27.00;21.30;;;;;;5053263;28;20396;-69
2022/04/21 09:47:54;;;;;;;0.50;0.40;;;27.40;20.80;;;;;;5054222;28;20201;-69
2022/04/21 09:50:21;;;;;;;0.97;0.97;;;27.30;21.60;;;;;;5052748;28;20401;-68
2022/04/21 09:52:52;;;;;;;0.50;0.50;;;27.30;21.20;;;;;;5053540;28;20404;-69
2022/04/21 09:55:21;;;;;;;1.70;0.60;;;27.20;22.30;;;;;;5052766;28;20460;-69
2022/04/21 09:57:50;;;;;;;0.40;0.40;;;27.20;21.70;;;;;;5051552;28;20455;-69
2022/04/21 10:00:20;;;;;;;0.30;0.30;;;26.30;22.00;;;;;;5052865;28;20412;-69
2022/04/21 10:02:47;;;;;;;0.50;0.50;;;25.70;22.00;;;;;;5053384;28;20391;-69
2022/04/21 10:05:13;;;;;;;0.30;0.30;;;25.10;21.40;;;;;;5051913;28;20947;-69
2022/04/21 10:07:40;;;;;;;0.50;0.50;;;24.40;21.60;;;;;;5053235;28;20383;-69
2022/04/21 10:10:07;;;;;;;0.67;0.67;;;24.40;21.90;;;;;;5052893;28;20812;-69
2022/04/21 10:12:33;;;;;;;0.80;0.57;;;23.50;23.80;;;;;;5053264;28;20391;-69
2022/04/21 10:15:00;;;;;;;1.23;1.13;;;23.60;23.60;;;;;;5053196;28;20948;-69
2022/04/21 10:17:26;;;;;;;0.50;0.40;;;23.10;23.60;;;;;;5053310;28;20753;-69
2022/04/21 10:19:52;;;;;;;0.43;0.43;;;23.00;23.00;;;;;;5052927;28;20434;-69
2022/04/21 10:22:19;;;;;;;0.30;0.30;;;22.30;24.30;;;;;;5052945;28;20191;-69
2022/04/21 10:24:46;;;;;;;0.30;0.30;;;22.60;23.90;;;;;;5052772;28;20407;-69
2022/04/21 10:27:38;;;;;;;0.40;0.40;;;22.90;23.20;;;;;;5052540;28;20406;-69
2022/04/21 10:30:25;;;;;;;0.40;0.40;;;22.80;23.30;;;;;;5053099;28;20422;-69
2022/04/21 10:32:55;;;;;;;0.40;0.40;;;23.00;24.20;;;;;;5053374;28;20405;-69
2022/04/21 10:35:24;;;;;;;0.30;0.30;;;23.30;24.90;;;;;;5053037;28;20497;-69
2022/04/21 10:38:14;;;;;;;0.50;0.50;;;23.00;24.70;;;;;;5052290;28;20436;-69
2022/04/21 10:40:56;;;;;;;0.30;0.30;;;22.40;24.50;;;;;;5053090;28;20543;-69
2022/04/21 10:43:22;;;;;;;0.40;0.40;;;22.40;25.30;;;;;;5052956;28;20458;-69
2022/04/21 10:46:04;;;;;;;0.30;0.30;;;22.20;24.90;;;;;;5052954;28;20808;-69
2022/04/21 10:48:44;;;;;;;0.30;0.30;;;22.10;25.70;;;;;;5052724;28;20424;-69
2022/04/21 10:51:12;;;;;;;2.63;2.53;;;22.00;25.40;;;;;;5052720;28;20409;-69
2022/04/21 11:00:00;;;;;;;0.30;0.30;;;20.50;27.20;;;;;;5052855;28;20524;-69
2022/04/21 11:02:38;;;;;;;0.50;0.50;;;19.80;27.50;;;;;;5054313;28;20386;-69
2022/04/21 11:05:23;;;;;;;0.30;0.30;;;19.40;29.50;;;;;;5056247;28;20432;-69
2022/04/21 11:07:54;;;;;;;0.70;0.70;;;19.00;30.30;;;;;;5056139;28;20407;-69
2022/04/21 11:10:36;;;;;;;1.13;1.03;;;18.90;31.00;;;;;;5056033;28;20415;-68
2022/04/21 11:13:02;;;;;;;0.30;0.30;;;19.10;29.30;;;;;;5056339;28;20401;-69
2022/04/21 11:15:36;;;;;;;0.30;0.30;;;19.40;29.00;;;;;;5056087;28;20446;-69
2022/04/21 11:18:09;;;;;;;0.77;0.77;;;19.70;30.90;;;;;;5055952;28;20404;-69
2022/04/21 11:20:37;;;;;;;0.30;0.30;;;19.70;28.60;;;;;;5055857;28;20504;-69
2022/04/21 11:23:03;;;;;;;1.60;1.50;;;19.10;29.40;;;;;;5055914;28;20431;-69
2022/04/21 11:25:35;;;;;;;0.40;0.40;;;18.60;30.00;;;;;;5055973;28;20404;-69
2022/04/21 11:28:01;;;;;;;0.40;0.40;;;18.40;30.20;;;;;;5055835;28;20253;-68
2022/04/21 11:30:30;;;;;;;0.30;0.30;;;18.60;30.70;;;;;;5055727;28;20794;-68
2022/04/21 11:32:56;;;;;;;0.30;0.30;;;18.40;30.10;;;;;;5055741;28;20397;-69
2022/04/21 11:35:24;;;;;;;0.70;0.70;;;18.70;30.50;;;;;;5055764;28;20539;-69
2022/04/21 11:37:54;;;;;;;0.50;0.50;;;18.60;30.30;;;;;;5055710;28;20163;-69
2022/04/21 11:40:41;;;;;;;0.30;0.30;;;18.50;31.00;;;;;;5055393;28;20393;-68
2022/04/21 11:43:17;;;;;;;0.30;0.30;;;18.60;31.60;;;;;;5054068;28;20932;-69
2022/04/21 11:46:00;;;;;;;0.30;0.30;;;18.90;30.30;;;;;;5055451;28;20413;-68
2022/04/21 11:48:33;;;;;;;1.03;1.03;;;18.50;30.30;;;;;;5055460;28;20516;-69
2022/04/21 11:50:59;;;;;;;0.30;0.30;;;18.60;32.30;;;;;;5055198;28;20462;-69
2022/04/21 11:53:28;;;;;;;0.30;0.30;;;18.60;31.00;;;;;;5055551;28;20416;-69
2022/04/21 11:55:54;;;;;;;0.30;0.30;;;18.80;30.90;;;;;;5053994;28;21012;-68
2022/04/21 11:58:26;;;;;;;0.30;0.30;;;18.70;30.20;;;;;;5055366;28;20489;-69
2022/04/21 12:06:32;;;;;;;0.30;0.30;;;18.40;30.50;;;;;;5055368;28;20932;-69
2022/04/21 12:08:59;;;;;;;0.70;0.70;;;18.40;30.90;;;;;;5055001;28;20444;-69
2022/04/21 12:11:25;;;;;;;1.40;1.40;;;18.20;31.20;;;;;;5054680;28;20440;-69
2022/04/21 12:13:51;;;;;;;0.40;0.40;;;17.90;31.50;;;;;;5054235;28;20452;-69
2022/04/21 12:16:37;;;;;;;0.30;0.30;;;17.50;32.50;;;;;;5054775;28;20404;-69
2022/04/21 12:19:12;;;;;;;0.30;0.30;;;17.70;33.40;;;;;;5054787;28;20530;-69
2022/04/21 12:21:38;;;;;;;0.40;0.40;;;17.80;32.10;;;;;;5054525;28;20411;-69
2022/04/21 12:24:15;;;;;;;0.40;0.40;;;17.90;31.50;;;;;;5054837;28;20756;-69
2022/04/21 12:26:48;;;;;;;0.30;0.30;;;17.90;32.00;;;;;;5054915;28;20170;-69
2022/04/21 12:29:13;;;;;;;0.30;0.30;;;17.70;31.70;;;;;;5054540;28;20428;-69
2022/04/21 12:31:53;;;;;;;0.30;0.30;;;17.60;32.20;;;;;;5054477;28;20442;-69
2022/04/21 12:34:29;;;;;;;0.30;0.30;;;17.50;32.90;;;;;;5054676;28;20194;-69
2022/04/21 12:36:57;;;;;;;0.30;0.30;;;17.60;34.00;;;;;;5054934;28;20879;-69
2022/04/21 12:39:25;;;;;;;0.40;0.40;;;17.80;33.00;;;;;;5054579;28;20420;-69
2022/04/21 12:41:52;;;;;;;0.30;0.30;;;17.70;33.20;;;;;;5054358;28;20404;-69
2022/04/21 12:44:19;;;;;;;0.30;0.30;;;17.60;32.90;;;;;;5054417;28;20401;-69
2022/04/21 12:47:15;;;;;;;0.57;0.57;;;17.50;33.20;;;;;;5054426;28;20401;-69
2022/04/21 12:50:01;;;;;;;0.30;0.30;;;17.40;32.70;;;;;;5051028;28;20439;-69
2022/04/21 12:52:34;;;;;;;0.30;0.30;;;17.30;32.90;;;;;;5054431;28;20733;-69
2022/04/21 12:55:01;;;;;;;0.30;0.30;;;17.20;34.30;;;;;;5054308;28;20447;-69
2022/04/21 12:57:27;;;;;;;0.30;0.30;;;16.80;34.20;;;;;;5051953;28;20401;-69
2022/04/21 12:59:54;;;;;;;0.30;0.30;;;16.70;34.90;;;;;;5053977;28;20420;-69
2022/04/21 13:02:19;;;;;;;0.30;0.30;;;16.80;35.70;;;;;;5054280;28;20401;-69
2022/04/21 13:04:46;;;;;;;0.57;0.57;;;17.10;35.70;;;;;;5054367;28;20458;-69
2022/04/21 13:07:11;;;;;;;0.30;0.30;;;17.30;34.70;;;;;;5054280;28;20178;-69
2022/04/21 13:09:37;;;;;;;0.30;0.30;;;17.40;37.30;;;;;;5051514;28;20428;-69
2022/04/21 13:12:04;;;;;;;0.30;0.30;;;17.70;35.30;;;;;;5053211;28;20252;-68
2022/04/21 13:14:30;;;;;;;0.30;0.30;;;17.60;33.90;;;;;;5053720;28;20201;-68
2022/04/21 13:16:56;;;;;;;0.40;0.40;;;17.30;34.00;;;;;;5053956;28;20393;-69
2022/04/21 13:19:21;;;;;;;1.07;1.07;;;17.20;34.40;;;;;;5053400;28;20178;-69
2022/04/21 13:21:53;;;;;;;0.90;0.90;;;17.20;34.90;;;;;;5053470;28;20428;-69
2022/04/21 13:24:26;;;;;;;0.30;0.30;;;17.10;36.70;;;;;;5053155;28;20173;-69
2022/04/21 13:26:52;;;;;;;0.40;0.40;;;17.10;34.90;;;;;;5053495;28;20404;-69
2022/04/21 13:29:20;;;;;;;0.30;0.30;;;17.10;34.90;;;;;;5053462;28;20481;-69
2022/04/21 13:34:30;;;;;;;0.30;0.30;;;17.30;36.10;;;;;;5051186;28;21048;-68
2022/04/21 13:36:56;;;;;;;0.30;0.30;;;17.20;35.40;;;;;;5053268;28;20436;-69
2022/04/21 13:39:22;;;;;;;0.30;0.30;;;17.30;36.30;;;;;;5052415;28;20549;-69
2022/04/21 13:41:48;;;;;;;0.30;0.30;;;17.30;35.50;;;;;;5050810;28;20211;-69
2022/04/21 13:44:14;;;;;;;0.50;0.50;;;17.40;35.90;;;;;;5052688;28;20212;-69
2022/04/21 13:46:41;;;;;;;0.30;0.30;;;17.40;35.60;;;;;;5053275;28;20791;-69
2022/04/21 13:49:10;;;;;;;0.30;0.30;;;17.50;36.00;;;;;;5053234;28;20423;-69